YEL weather

Elliot Lake Municipal Airport
Elliot Lake, Ontario, Canada

Public forecast

Using degrees Celsius for public forecast. Weather courtesy of forecast.io.

Current aviation weather report (METAR) for Elliot Lake Municipal Airport

Report is more than 6 hours old.

Retrieved 2012/04/02 18:00 UTC (8 years ago):

CYEL 021800Z 27008KT 15SM SKC 10/M06 A3009 RMK WNDS ESTD/LAST OB/UNFORTUNATELY FOREVER SLP199

Closest aviation forecast (TAF) to Elliot Lake Municipal Airport

Closest forecast is Gore Bay Manitoulin Airport, 28.0 nm (51.8 km) S. Retrieved 2019/10/16 10:42 UTC (0 seconds ago):

TAF CYZE 160938Z 1610/1622 08020G30KT 6SM -RA BR OVC012 TEMPO 1610/1622 3SM -RA -DZ BR OVC007 BECMG 1615/1617 03020G30KT RMK FCST BASED ON AUTO OBS NXT FCST BY 161400Z